Terminal Aerodrome Forecast
Issued by NWS

Home | Current Version | Previous Version | Graphics & Text | Print | Product List | Glossary On
Versions: 1 2 3 4 5 6 7 8 9 10 11 12
000
FTUS43 KICT 282338
TAFSLN
TAF
KSLN 282338Z 2900/2924 16006KT P6SM BKN120
     FM291000 VRB03KT P6SM SCT050
     FM291900 05010KT P6SM BKN050
     FM292300 02018G25KT P6SM BKN030=

USA.gov is the U.S. government's official web portal to all federal, state and local government web resources and services.